8 minutes ago
Runway Headwind Crosswind Length
3/21 5 kt 4,183 ft
METAR EHKD 231755Z AUTO 03006KT 350V070 9999 OVC250 14/08 Q1022 BLU NOSIG

METAR definition | Embed

METAR De Kooy Airfield

De Kooy Airfield is a midsized airport in Den Helder, The Netherlands. The airport has one runway: 3/21 (4,183 ft)

This report was made for De Kooy Airfield on June 23, 2021 7:55 pm, local time.

Airport observations

The wind is from direction northnortheast (030°) with a speed of 6 kt. The wind direction varies between north (350°) and eastnortheast (070°).

Visibility is 6¼ mi or more.

There are overcast clouds at an altitude of 25,000 ft. The ceiling, broken or more, is 25,000 ft.

The temperature and wind chill are 57 °F. The dew point is 46 °F, the relative humidity is 67%. The air pressure at sea level is 30.18 inHg (QNH).

Daylight period

Today the sun rises at 5:15 am and sets at 10:10 pm. This applies to De Kooy Airfield, the universal daylight period may be different. The difference between the local time and UTC is +2 hour. Daylight saving time is currently in progress.

Historical data

Donate

Will you help us to keep Metar-Taf.com running?
Your contribution helps further development of the site and to pay for the expenses.

No more ads

Are you donating $ 5 or more? Then we'll never show you ads again, as a token of our eternal gratitude!
Log in before you donate

Do you want the flying weather of De Kooy Airfield on your website? Read more   Free!